createdAt,value
2018-03-11T00:00:50.732Z,76.07
2018-03-11T00:03:18.508Z,76.45
2018-03-11T00:05:46.131Z,76.75
2018-03-11T00:08:14.170Z,77.42
2018-03-11T00:10:41.794Z,77.64
2018-03-11T00:13:09.875Z,78.00
2018-03-11T00:15:37.434Z,77.96
2018-03-11T00:18:05.237Z,78.61
2018-03-11T00:20:32.841Z,78.92
2018-03-11T00:23:00.400Z,79.17
2018-03-11T00:25:28.006Z,79.60
2018-03-11T00:27:55.625Z,79.92
2018-03-11T00:30:23.212Z,79.89
2018-03-11T00:32:51.082Z,80.11
2018-03-11T00:35:18.735Z,80.04
2018-03-11T00:37:46.288Z,80.15
2018-03-11T00:40:13.866Z,79.95
2018-03-11T00:42:41.769Z,80.14
2018-03-11T00:45:09.823Z,80.30
2018-03-11T00:47:37.385Z,79.95
2018-03-11T00:50:05.012Z,79.69
2018-03-11T00:52:32.555Z,79.61
2018-03-11T00:55:00.108Z,79.12
2018-03-11T00:57:27.728Z,79.34
2018-03-11T00:59:55.380Z,79.76
2018-03-11T01:02:22.979Z,79.93
2018-03-11T01:04:50.552Z,80.39
2018-03-11T01:07:18.113Z,79.93
2018-03-11T01:09:45.678Z,79.99
2018-03-11T01:12:13.325Z,80.15
2018-03-11T01:14:40.970Z,80.46
2018-03-11T01:17:08.681Z,80.50
2018-03-11T01:19:36.245Z,80.96
2018-03-11T01:22:03.875Z,81.33
2018-03-11T01:24:31.429Z,81.53
2018-03-11T01:26:59.007Z,81.41
2018-03-11T01:29:26.598Z,81.29
2018-03-11T01:31:54.210Z,81.83
2018-03-11T01:34:21.805Z,82.26
2018-03-11T01:36:49.429Z,82.24
2018-03-11T01:39:16.997Z,82.16
2018-03-11T01:41:44.611Z,81.89
2018-03-11T01:44:12.487Z,82.08
2018-03-11T01:46:40.031Z,82.13
2018-03-11T01:49:07.948Z,81.74
2018-03-11T01:51:35.487Z,81.79
2018-03-11T01:54:03.070Z,81.75
2018-03-11T01:56:30.669Z,81.76
2018-03-11T01:58:58.215Z,81.87
2018-03-11T02:01:25.784Z,82.31
2018-03-11T02:03:53.552Z,82.28
2018-03-11T02:06:21.274Z,82.67
2018-03-11T02:08:48.910Z,82.32
2018-03-11T02:11:16.527Z,82.79
2018-03-11T02:13:44.144Z,82.91
2018-03-11T02:16:11.734Z,83.01
2018-03-11T02:18:39.374Z,83.00
2018-03-11T02:21:10.563Z,83.57
2018-03-11T02:23:38.133Z,84.17
2018-03-11T02:26:05.837Z,84.15
2018-03-11T02:28:33.454Z,84.32
2018-03-11T02:31:01.057Z,84.57
2018-03-11T02:33:28.693Z,84.79
2018-03-11T02:35:56.385Z,84.86
2018-03-11T02:38:23.979Z,84.64
2018-03-11T02:40:51.554Z,84.52
2018-03-11T02:43:19.116Z,84.56
2018-03-11T02:45:46.694Z,84.25
2018-03-11T02:48:14.338Z,83.73
2018-03-11T02:50:42.136Z,84.16
2018-03-11T02:53:10.095Z,84.30
2018-03-11T02:55:37.703Z,84.44
2018-03-11T02:58:05.265Z,84.11
2018-03-11T03:00:32.821Z,84.58
2018-03-11T03:03:00.415Z,84.29
2018-03-11T03:05:28.123Z,84.60
2018-03-11T03:07:57.197Z,85.06
2018-03-11T03:10:24.809Z,84.97
2018-03-11T03:12:52.351Z,85.17
2018-03-11T03:15:19.978Z,85.03
2018-03-11T03:18:00.245Z,85.58
2018-03-11T03:20:28.237Z,85.53
2018-03-11T03:22:56.269Z,85.75
2018-03-11T03:25:24.234Z,85.81
2018-03-11T03:27:52.151Z,85.38
2018-03-11T03:30:19.724Z,85.82
2018-03-11T03:32:47.288Z,86.06
2018-03-11T03:35:14.956Z,85.82
2018-03-11T03:37:42.573Z,85.46
2018-03-11T03:40:10.874Z,85.88
2018-03-11T03:42:40.534Z,85.67
2018-03-11T03:45:08.120Z,85.81
2018-03-11T03:47:36.270Z,85.77
2018-03-11T03:50:03.893Z,85.51
2018-03-11T03:52:31.501Z,85.92
2018-03-11T03:54:59.146Z,85.80
2018-03-11T03:57:27.044Z,85.76
2018-03-11T03:59:54.653Z,85.98
2018-03-11T04:02:22.477Z,85.93
2018-03-11T04:04:50.268Z,86.06
2018-03-11T04:07:18.003Z,85.96
2018-03-11T04:09:45.570Z,85.84
2018-03-11T04:12:13.156Z,85.51
2018-03-11T04:14:40.718Z,85.11
2018-03-11T04:17:08.739Z,84.83
2018-03-11T04:19:36.379Z,84.84
2018-03-11T04:22:03.966Z,85.04
2018-03-11T04:24:31.585Z,84.91
2018-03-11T04:26:59.118Z,84.78
2018-03-11T04:29:27.203Z,84.89
2018-03-11T04:31:54.867Z,85.39
2018-03-11T04:34:22.419Z,86.50
2018-03-11T04:36:50.033Z,86.16
2018-03-11T04:39:17.592Z,85.69
2018-03-11T04:41:45.179Z,85.30
2018-03-11T04:44:12.859Z,85.33
2018-03-11T04:46:40.429Z,85.20
2018-03-11T04:49:08.059Z,84.77
2018-03-11T04:51:35.754Z,84.84
2018-03-11T04:54:03.692Z,84.51
2018-03-11T04:56:31.276Z,84.57
2018-03-11T04:58:58.846Z,84.85
2018-03-11T05:01:26.461Z,85.47
2018-03-11T05:03:54.170Z,85.12
2018-03-11T05:06:21.991Z,85.03
2018-03-11T05:08:49.673Z,85.35
2018-03-11T05:11:17.255Z,85.99
2018-03-11T05:13:44.840Z,84.92
2018-03-11T05:16:12.394Z,85.10
2018-03-11T05:18:39.996Z,85.41
2018-03-11T05:21:07.623Z,85.69
2018-03-11T05:23:35.202Z,86.52
2018-03-11T05:28:52.885Z,87.46
2018-03-11T05:31:29.331Z,87.68
2018-03-11T05:33:56.882Z,87.53
2018-03-11T05:36:25.340Z,87.37
2018-03-11T05:38:52.914Z,86.95
2018-03-11T05:41:20.466Z,86.30
2018-03-11T05:46:20.043Z,86.29
2018-03-11T05:48:47.593Z,86.96
2018-03-11T05:51:15.198Z,86.49
2018-03-11T05:53:46.688Z,86.83
2018-03-11T05:56:14.261Z,87.21
2018-03-11T05:58:41.896Z,87.25
2018-03-11T06:01:09.576Z,87.41
2018-03-11T06:03:37.129Z,86.57
2018-03-11T06:06:04.680Z,86.44
2018-03-11T06:08:32.241Z,86.13
2018-03-11T06:10:59.821Z,86.16
2018-03-11T06:13:27.408Z,86.11
2018-03-11T06:15:54.982Z,86.35
2018-03-11T06:18:22.584Z,86.81
2018-03-11T06:20:50.142Z,86.36
2018-03-11T06:23:17.710Z,86.22
2018-03-11T06:25:45.358Z,85.58
2018-03-11T06:28:12.976Z,85.16
2018-03-11T06:30:40.572Z,84.57
2018-03-11T06:33:08.454Z,84.45
2018-03-11T06:35:36.068Z,84.00
2018-03-11T06:38:03.652Z,83.64
2018-03-11T06:40:32.166Z,82.59
2018-03-11T06:42:59.731Z,82.18
2018-03-11T06:45:27.590Z,81.67
2018-03-11T06:47:55.219Z,80.52
2018-03-11T06:50:22.822Z,79.52
2018-03-11T06:52:50.457Z,78.57
2018-03-11T06:55:18.055Z,78.16
2018-03-11T06:57:45.644Z,77.37
2018-03-11T07:00:13.225Z,76.74
2018-03-11T07:02:42.879Z,75.09
2018-03-11T07:05:10.899Z,73.81
2018-03-11T07:07:38.482Z,73.18
2018-03-11T07:10:07.288Z,72.45
2018-03-11T07:12:34.930Z,71.65
2018-03-11T07:15:02.530Z,71.23
2018-03-11T07:17:30.118Z,72.15
2018-03-11T07:19:57.756Z,71.42
2018-03-11T07:22:25.509Z,70.70
2018-03-11T07:24:53.106Z,70.51
2018-03-11T07:27:20.863Z,70.25
2018-03-11T07:29:48.454Z,70.30
2018-03-11T07:32:16.040Z,70.89
2018-03-11T07:34:45.263Z,70.29
2018-03-11T07:37:13.815Z,68.58
2018-03-11T07:39:41.494Z,67.46
2018-03-11T07:42:09.140Z,67.27
2018-03-11T07:44:36.711Z,67.53
2018-03-11T07:47:04.354Z,66.71
2018-03-11T07:49:32.394Z,67.72
2018-03-11T07:52:00.026Z,68.74
2018-03-11T07:54:27.646Z,69.00
2018-03-11T07:56:55.265Z,69.23
2018-03-11T07:59:22.851Z,69.75
2018-03-11T08:01:50.464Z,69.90
2018-03-11T08:04:18.891Z,69.77
2018-03-11T08:06:46.540Z,68.05
2018-03-11T08:09:14.251Z,68.53
2018-03-11T08:11:42.297Z,67.21
2018-03-11T08:14:09.992Z,66.02
2018-03-11T08:16:37.628Z,66.31
2018-03-11T08:19:05.291Z,67.58
2018-03-11T08:21:33.571Z,67.43
2018-03-11T08:24:01.340Z,66.80
2018-03-11T08:26:28.915Z,66.69
2018-03-11T08:28:56.571Z,66.36
2018-03-11T08:31:24.179Z,65.75
2018-03-11T08:33:51.762Z,65.01
2018-03-11T08:36:19.645Z,64.51
2018-03-11T08:38:47.239Z,64.68
2018-03-11T08:41:14.860Z,64.01
2018-03-11T08:43:42.459Z,63.29
2018-03-11T08:46:10.183Z,62.65
2018-03-11T08:48:37.783Z,62.52
2018-03-11T08:51:05.550Z,61.31
2018-03-11T08:53:33.152Z,61.02
2018-03-11T08:56:00.742Z,62.14
2018-03-11T08:58:29.044Z,61.53
2018-03-11T09:00:56.638Z,61.93
2018-03-11T09:03:24.921Z,61.74
2018-03-11T09:05:52.525Z,61.30
2018-03-11T09:08:20.156Z,61.71
2018-03-11T09:10:47.743Z,61.00
2018-03-11T09:13:15.372Z,61.84
2018-03-11T09:15:43.329Z,59.98
2018-03-11T09:18:10.913Z,60.07
2018-03-11T09:20:38.540Z,59.92
2018-03-11T09:23:06.338Z,59.69
2018-03-11T09:25:34.153Z,57.90
2018-03-11T09:30:52.147Z,56.10
2018-03-11T09:33:19.745Z,56.36
2018-03-11T09:35:47.365Z,55.42
2018-03-11T09:38:14.992Z,52.01
2018-03-11T09:40:42.864Z,51.96
2018-03-11T09:43:10.713Z,51.58
2018-03-11T09:45:38.416Z,53.15
2018-03-11T09:48:05.934Z,51.66
2018-03-11T09:50:34.598Z,51.17
2018-03-11T09:53:02.164Z,51.07
2018-03-11T09:55:29.769Z,51.58
2018-03-11T09:57:57.430Z,51.46
2018-03-11T10:00:25.021Z,51.40
2018-03-11T10:02:52.630Z,48.41
2018-03-11T10:05:20.297Z,48.85
2018-03-11T10:07:47.848Z,47.46
2018-03-11T10:10:16.105Z,48.02
2018-03-11T10:12:44.905Z,47.55
2018-03-11T10:15:12.610Z,47.96
2018-03-11T10:17:40.364Z,47.54
2018-03-11T10:20:08.026Z,46.96
2018-03-11T10:22:35.650Z,47.02
2018-03-11T10:25:03.268Z,46.17
2018-03-11T10:27:30.890Z,47.67
2018-03-11T10:29:58.497Z,46.95
2018-03-11T10:32:26.981Z,46.74
2018-03-11T10:34:54.569Z,48.27
2018-03-11T10:37:22.143Z,46.62
2018-03-11T10:39:49.729Z,46.18
2018-03-11T10:42:17.285Z,45.33
2018-03-11T10:44:44.864Z,44.69
2018-03-11T10:47:12.517Z,45.03
2018-03-11T10:49:40.118Z,46.11
2018-03-11T10:52:07.730Z,45.72
2018-03-11T10:54:37.377Z,45.65
2018-03-11T10:57:04.981Z,44.78
2018-03-11T10:59:32.575Z,43.71
2018-03-11T11:05:08.826Z,43.96
2018-03-11T11:07:36.500Z,45.55
2018-03-11T11:10:07.045Z,45.02
2018-03-11T11:12:35.231Z,45.48
2018-03-11T11:15:03.716Z,46.15
2018-03-11T11:17:31.287Z,45.51
2018-03-11T11:20:00.648Z,46.21
2018-03-11T11:22:29.935Z,47.14
2018-03-11T11:24:58.485Z,49.02
2018-03-11T11:27:26.509Z,48.93
2018-03-11T11:29:54.110Z,49.96
2018-03-11T11:32:21.780Z,47.85
2018-03-11T11:34:49.360Z,48.59
2018-03-11T11:37:19.288Z,48.87
2018-03-11T11:39:46.984Z,48.72
2018-03-11T11:42:14.736Z,48.00
2018-03-11T11:44:43.414Z,49.66
2018-03-11T11:47:11.187Z,47.79
2018-03-11T11:49:38.782Z,48.73
2018-03-11T11:52:07.726Z,48.08
2018-03-11T11:54:35.304Z,46.33
2018-03-11T11:57:04.210Z,46.32
2018-03-11T11:59:31.862Z,46.19
2018-03-11T12:01:59.482Z,45.39
2018-03-11T12:04:27.039Z,44.60
2018-03-11T12:06:54.695Z,40.44
2018-03-11T12:09:22.660Z,38.89
2018-03-11T12:11:50.296Z,37.61
2018-03-11T12:14:17.989Z,37.08
2018-03-11T12:16:45.536Z,40.04
2018-03-11T12:19:13.462Z,41.46
2018-03-11T12:21:41.019Z,41.99
2018-03-11T12:24:08.612Z,43.07
2018-03-11T12:26:36.326Z,44.27
2018-03-11T12:29:04.042Z,44.82
2018-03-11T12:31:33.701Z,45.13
2018-03-11T12:34:01.338Z,46.23
2018-03-11T12:36:30.166Z,46.36
2018-03-11T12:38:58.025Z,47.20
2018-03-11T12:41:26.156Z,48.36
2018-03-11T12:43:53.800Z,49.01
2018-03-11T12:46:21.445Z,48.48
2018-03-11T12:48:49.053Z,48.45
2018-03-11T12:51:17.425Z,49.48
2018-03-11T12:53:45.328Z,49.08
2018-03-11T12:56:12.968Z,49.17
2018-03-11T12:58:40.563Z,48.84
2018-03-11T13:01:08.154Z,47.54
2018-03-11T13:03:35.817Z,46.80
2018-03-11T13:06:03.527Z,45.94
2018-03-11T13:08:31.470Z,45.09
2018-03-11T13:10:59.061Z,43.97
2018-03-11T13:13:28.112Z,42.98
2018-03-11T13:15:55.921Z,43.59
2018-03-11T13:18:23.537Z,41.50
2018-03-11T13:21:11.955Z,39.48
2018-03-11T13:23:39.654Z,37.39
2018-03-11T13:26:07.367Z,36.93
2018-03-11T13:28:45.798Z,37.61
2018-03-11T13:31:13.508Z,41.55
2018-03-11T13:33:52.957Z,42.28
2018-03-11T13:36:20.554Z,45.86
2018-03-11T13:38:59.990Z,45.06
2018-03-11T13:41:27.557Z,44.20
2018-03-11T13:43:55.172Z,41.52
2018-03-11T13:46:34.581Z,41.99
2018-03-11T13:49:02.195Z,43.55
2018-03-11T13:51:41.890Z,42.35
2018-03-11T13:54:09.585Z,41.85
2018-03-11T13:56:37.208Z,41.43
2018-03-11T13:59:04.922Z,42.08
2018-03-11T14:01:32.542Z,43.32
2018-03-11T14:04:00.552Z,43.02
2018-03-11T14:06:31.494Z,42.27
2018-03-11T14:08:59.028Z,43.56
2018-03-11T14:11:28.886Z,43.25
2018-03-11T14:13:56.688Z,39.30
2018-03-11T14:16:24.427Z,40.30
2018-03-11T14:18:52.147Z,42.51
2018-03-11T14:21:24.343Z,44.31
2018-03-11T14:23:52.578Z,45.09
2018-03-11T14:26:20.256Z,45.20
2018-03-11T14:28:48.424Z,42.18
2018-03-11T14:31:16.912Z,42.80
2018-03-11T14:33:44.575Z,44.09
2018-03-11T14:36:12.237Z,46.31
2018-03-11T14:38:42.078Z,47.85
2018-03-11T14:41:12.183Z,48.71
2018-03-11T14:43:39.809Z,48.94
2018-03-11T14:46:22.621Z,48.09
2018-03-11T14:51:44.152Z,43.69
2018-03-11T15:00:07.944Z,42.73
2018-03-11T15:33:00.456Z,48.30
2018-03-11T15:40:46.002Z,47.95
2018-03-11T15:43:22.122Z,48.20
2018-03-11T15:45:50.232Z,48.69
2018-03-11T15:48:17.906Z,49.47
2018-03-11T15:50:45.650Z,50.52
2018-03-11T15:53:15.527Z,50.46
2018-03-11T15:55:43.393Z,52.72
2018-03-11T15:58:11.248Z,55.22
2018-03-11T16:00:38.960Z,55.77
2018-03-11T16:03:07.225Z,55.55
2018-03-11T16:05:35.868Z,56.15
2018-03-11T16:08:03.746Z,56.18
2018-03-11T16:10:31.876Z,57.31
2018-03-11T16:12:59.620Z,58.23
2018-03-11T16:15:28.180Z,59.04
2018-03-11T16:17:55.996Z,59.73
2018-03-11T16:20:24.073Z,60.97
2018-03-11T16:22:51.765Z,61.55
2018-03-11T16:25:19.521Z,62.71
2018-03-11T16:27:48.476Z,63.53
2018-03-11T16:30:16.469Z,64.92
2018-03-11T16:32:44.388Z,65.79
2018-03-11T16:37:44.073Z,66.95
2018-03-11T16:40:12.789Z,66.67
2018-03-11T16:42:40.478Z,67.99
2018-03-11T16:45:09.756Z,68.91
2018-03-11T16:47:37.827Z,69.34
2018-03-11T16:50:05.668Z,70.30
2018-03-11T16:52:34.289Z,71.23
2018-03-11T16:55:02.568Z,71.78
2018-03-11T16:57:30.550Z,72.74
2018-03-11T16:59:58.528Z,73.16
2018-03-11T17:02:26.644Z,73.87
2018-03-11T17:04:54.684Z,74.24
2018-03-11T17:07:22.337Z,73.99
2018-03-11T17:09:49.986Z,73.71
2018-03-11T17:12:20.419Z,73.98
2018-03-11T17:14:47.987Z,73.92
2018-03-11T17:17:15.679Z,74.21
2018-03-11T17:19:43.306Z,74.51
2018-03-11T17:22:11.038Z,74.59
2018-03-11T17:24:38.674Z,74.98
2018-03-11T17:27:06.746Z,74.85
2018-03-11T17:29:35.510Z,74.91
2018-03-11T17:32:03.183Z,75.12
2018-03-11T17:34:30.771Z,75.45
2018-03-11T17:36:58.344Z,75.21
2018-03-11T17:39:26.187Z,75.71
2018-03-11T17:41:53.740Z,76.08
2018-03-11T17:44:22.124Z,76.39
2018-03-11T17:46:49.786Z,76.74
2018-03-11T17:49:17.393Z,77.43
2018-03-11T17:51:45.005Z,77.55
2018-03-11T17:54:12.742Z,78.03
2018-03-11T17:56:56.725Z,78.08
2018-03-11T17:59:30.059Z,78.12
2018-03-11T18:02:29.697Z,77.67
2018-03-11T18:04:59.149Z,77.65
2018-03-11T18:07:26.795Z,77.81
2018-03-11T18:09:54.359Z,78.22
2018-03-11T18:12:22.893Z,78.20
2018-03-11T18:14:50.517Z,78.13
2018-03-11T18:17:18.159Z,78.55
2018-03-11T18:19:45.762Z,78.91
2018-03-11T18:22:13.413Z,79.02
2018-03-11T18:24:41.339Z,79.21
2018-03-11T18:27:10.381Z,79.46
2018-03-11T18:29:37.974Z,79.57
2018-03-11T18:32:05.642Z,79.71
2018-03-11T18:34:33.288Z,79.55
2018-03-11T18:37:00.870Z,79.70
2018-03-11T18:39:28.541Z,79.70
2018-03-11T18:41:56.211Z,80.28
2018-03-11T18:44:23.967Z,79.46
2018-03-11T18:46:51.658Z,79.29
2018-03-11T18:49:19.277Z,78.84
2018-03-11T18:51:47.236Z,79.49
2018-03-11T18:54:15.050Z,79.84
2018-03-11T18:59:20.703Z,80.23
2018-03-11T19:01:56.901Z,79.80
2018-03-11T19:04:28.246Z,78.92
2018-03-11T19:09:42.055Z,78.44
2018-03-11T19:12:25.797Z,77.91
2018-03-11T19:14:54.094Z,78.14
2018-03-11T19:17:23.708Z,77.98
2018-03-11T19:20:20.632Z,78.04
2018-03-11T19:25:43.876Z,77.67
2018-03-11T19:28:12.713Z,77.53
2018-03-11T19:31:00.150Z,77.46
2018-03-11T19:33:27.806Z,77.68
2018-03-11T19:36:01.381Z,77.82
2018-03-11T19:38:32.106Z,78.35
2018-03-11T19:46:04.695Z,78.30
2018-03-11T19:48:32.390Z,78.10
2018-03-11T19:53:35.491Z,78.03
2018-03-11T19:56:06.179Z,78.13
2018-03-11T20:03:37.501Z,78.14
2018-03-11T20:06:07.454Z,78.24
2018-03-11T20:08:35.667Z,78.50
2018-03-11T20:13:35.525Z,79.06
2018-03-11T20:18:35.935Z,78.80
2018-03-11T20:21:03.586Z,78.97
2018-03-11T20:23:31.197Z,79.03
2018-03-11T20:25:58.837Z,78.81
2018-03-11T20:28:28.545Z,78.62
2018-03-11T20:30:56.222Z,78.59
2018-03-11T20:33:26.129Z,78.58
2018-03-11T20:38:44.306Z,78.68
2018-03-11T20:41:11.962Z,78.84
2018-03-11T20:43:39.687Z,78.91
2018-03-11T20:46:07.609Z,78.99
2018-03-11T20:48:35.489Z,79.33
2018-03-11T20:51:03.110Z,79.19
2018-03-11T20:53:32.212Z,79.25
2018-03-11T20:56:00.695Z,79.36
2018-03-11T20:58:28.393Z,79.45
2018-03-11T21:00:56.020Z,79.45
2018-03-11T21:03:24.560Z,79.32
2018-03-11T21:05:52.567Z,79.29
2018-03-11T21:08:22.707Z,79.49
2018-03-11T21:10:50.655Z,79.65
2018-03-11T21:13:18.848Z,79.76
2018-03-11T21:15:46.902Z,79.94
2018-03-11T21:18:14.521Z,80.33
2018-03-11T21:20:43.012Z,80.42
2018-03-11T21:23:13.557Z,80.29
2018-03-11T21:25:42.985Z,80.32
2018-03-11T21:28:10.882Z,80.29
2018-03-11T21:30:38.521Z,80.08
2018-03-11T21:33:06.472Z,80.17
2018-03-11T21:35:34.191Z,80.16
2018-03-11T21:38:01.859Z,80.14
2018-03-11T21:40:34.199Z,80.06
2018-03-11T21:43:01.826Z,80.29
2018-03-11T21:45:29.656Z,80.18
2018-03-11T21:47:57.353Z,80.45
2018-03-11T21:50:25.098Z,80.97
2018-03-11T21:52:52.716Z,81.18
2018-03-11T21:55:20.358Z,81.38
2018-03-11T21:57:48.029Z,81.45
2018-03-11T22:00:15.641Z,81.78
2018-03-11T22:02:43.275Z,81.94
2018-03-11T22:05:11.771Z,82.37
2018-03-11T22:07:39.344Z,82.17
2018-03-11T22:10:06.990Z,81.73
2018-03-11T22:12:34.605Z,81.52
2018-03-11T22:15:02.229Z,81.41
2018-03-11T22:17:29.812Z,81.54
2018-03-11T22:19:57.414Z,82.03
2018-03-11T22:22:25.012Z,81.79
2018-03-11T22:24:52.580Z,81.94
2018-03-11T22:27:20.213Z,82.21
2018-03-11T22:29:47.769Z,82.04
2018-03-11T22:32:15.340Z,81.92
2018-03-11T22:34:43.182Z,81.94
2018-03-11T22:37:11.142Z,81.87
2018-03-11T22:39:38.853Z,82.10
2018-03-11T22:42:06.676Z,82.88
2018-03-11T22:44:34.234Z,82.52
2018-03-11T22:47:01.857Z,81.97
2018-03-11T22:49:29.784Z,82.12
2018-03-11T22:51:57.386Z,82.14
2018-03-11T22:54:24.979Z,82.19
2018-03-11T22:56:52.557Z,81.83
2018-03-11T22:59:20.119Z,81.66
2018-03-11T23:01:47.732Z,81.51
2018-03-11T23:04:15.326Z,82.13
2018-03-11T23:06:42.998Z,81.38
2018-03-11T23:09:14.663Z,81.47
2018-03-11T23:11:42.359Z,81.78
2018-03-11T23:14:16.887Z,81.94
2018-03-11T23:16:44.512Z,81.91
2018-03-11T23:19:22.405Z,81.48
2018-03-11T23:21:52.785Z,81.47
2018-03-11T23:24:20.379Z,81.14
2018-03-11T23:26:47.996Z,81.12
2018-03-11T23:29:16.035Z,80.73
2018-03-11T23:31:43.641Z,81.06
2018-03-11T23:34:11.213Z,81.60
2018-03-11T23:36:38.814Z,81.80
2018-03-11T23:39:07.683Z,82.68
2018-03-11T23:41:35.288Z,82.88
2018-03-11T23:44:02.883Z,82.66
2018-03-11T23:46:30.495Z,82.53
2018-03-11T23:48:58.214Z,82.78
2018-03-11T23:51:25.778Z,83.03
2018-03-11T23:53:53.432Z,83.44
2018-03-11T23:56:21.912Z,83.74
2018-03-11T23:58:49.515Z,84.35
